Time;durP1;ratioP1;P1;durP2;ratioP2;P2;SDS_P1;SDS_P2;PMS_P1;PMS_P2;Temp;Humidity;BMP_temperature;BMP_pressure;BME280_temperature;BME280_humidity;BME280_pressure;Samples;Min_cycle;Max_cycle;Signal;HPM_P1;HPM_P2
2022/11/17 00:01:21;;;;;;;21.80;10.60;;;;;;;3.85;100.00;99231.69;103309;1303;24434;-55
2022/11/17 00:03:53;;;;;;;20.90;8.80;;;;;;;3.86;100.00;99229.42;103283;1271;23285;-56
2022/11/17 00:06:25;;;;;;;16.90;8.00;;;;;;;3.89;100.00;99231.81;103256;1278;24563;-57
2022/11/17 00:08:56;;;;;;;20.50;9.40;;;;;;;3.90;100.00;99228.31;103183;1295;24395;-54
2022/11/17 00:14:31;;;;;;;18.60;8.60;;;;;;;3.90;100.00;99229.52;103337;1288;25289;-58
2022/11/17 00:14:36;;;;;;;22.70;8.70;;;;;;;3.89;100.00;99222.12;103277;1279;24319;-58
2022/11/17 00:17:10;;;;;;;17.50;7.10;;;;;;;3.90;100.00;99227.04;103373;1302;22482;-58
2022/11/17 00:22:41;;;;;;;19.90;8.00;;;;;;;3.93;100.00;99227.21;102742;1294;24307;-58
2022/11/17 00:25:13;;;;;;;22.80;7.80;;;;;;;3.93;100.00;99224.36;102752;1285;22492;-55
2022/11/17 00:27:45;;;;;;;17.50;7.10;;;;;;;3.95;100.00;99226.02;103236;1284;22542;-58
2022/11/17 00:35:55;;;;;;;17.70;7.50;;;;;;;3.94;100.00;99222.13;102790;1285;22471;-56
2022/11/17 00:38:26;;;;;;;19.80;7.60;;;;;;;3.92;100.00;99221.42;102939;1307;25327;-56
2022/11/17 00:40:58;;;;;;;19.10;7.30;;;;;;;3.92;100.00;99219.40;102901;1287;25327;-58
2022/11/17 00:43:30;;;;;;;17.80;6.50;;;;;;;3.93;100.00;99220.52;102894;1277;25313;-55
2022/11/17 00:46:01;;;;;;;16.90;6.80;;;;;;;3.90;100.00;99225.65;102818;1284;24182;-58
2022/11/17 00:48:33;;;;;;;18.20;8.10;;;;;;;3.88;100.00;99229.66;102881;1286;22478;-57
2022/11/17 00:51:07;;;;;;;19.60;8.20;;;;;;;3.86;100.00;99228.78;102951;1294;25682;-57
2022/11/17 00:53:38;;;;;;;16.60;7.00;;;;;;;3.87;100.00;99225.37;102821;1307;23095;-58
2022/11/17 00:56:11;;;;;;;15.50;6.80;;;;;;;3.88;100.00;99223.97;102783;1284;26558;-54
2022/11/17 00:58:42;;;;;;;18.10;7.80;;;;;;;3.91;100.00;99226.80;103105;1281;22583;-57
2022/11/17 01:01:14;;;;;;;20.90;7.60;;;;;;;3.91;100.00;99234.67;103156;1271;25587;-58
2022/11/17 01:03:46;;;;;;;18.60;7.30;;;;;;;3.89;100.00;99229.85;103210;1278;24374;-58
2022/11/17 01:06:19;;;;;;;15.30;6.40;;;;;;;3.90;100.00;99231.45;103364;1271;22465;-57
2022/11/17 01:08:50;;;;;;;13.50;6.10;;;;;;;3.91;100.00;99228.20;103138;1294;24258;-57
2022/11/17 01:11:22;;;;;;;16.10;6.80;;;;;;;3.90;100.00;99226.42;103148;1303;22537;-57
2022/11/17 01:13:56;;;;;;;15.90;5.30;;;;;;;3.91;100.00;99222.89;103225;1274;22470;-58
2022/11/17 01:16:30;;;;;;;15.20;5.50;;;;;;;3.93;100.00;99224.70;103195;1278;22589;-57
2022/11/17 01:19:03;;;;;;;13.70;5.70;;;;;;;3.92;100.00;99220.17;103323;1278;22479;-57
2022/11/17 01:21:35;;;;;;;18.50;6.20;;;;;;;3.93;100.00;99220.67;103404;1278;25270;-57
2022/11/17 01:24:07;;;;;;;17.00;6.70;;;;;;;3.93;100.00;99221.70;103240;1278;22466;-59
2022/11/17 01:26:40;;;;;;;15.60;6.50;;;;;;;3.93;100.00;99222.73;103341;1278;25307;-58
2022/11/17 01:29:15;;;;;;;15.60;6.30;;;;;;;3.94;100.00;99220.10;103472;1282;25260;-57
2022/11/17 01:31:49;;;;;;;15.00;5.80;;;;;;;3.94;100.00;99213.31;103259;1302;22578;-57
2022/11/17 01:34:22;;;;;;;16.50;6.70;;;;;;;3.94;100.00;99213.15;103190;1271;25057;-58
2022/11/17 01:39:42;;;;;;;12.10;5.00;;;;;;;3.97;100.00;99213.42;103163;1302;24444;-58
2022/11/17 01:42:15;;;;;;;13.50;4.90;;;;;;;3.97;100.00;99214.21;103187;1274;22459;-57
2022/11/17 01:45:01;;;;;;;13.80;4.90;;;;;;;3.98;100.00;99220.38;103250;1295;25212;-58
2022/11/17 01:47:39;;;;;;;14.40;4.80;;;;;;;3.97;100.00;99216.23;103244;1278;22799;-57
2022/11/17 01:50:20;;;;;;;15.20;5.60;;;;;;;3.98;100.00;99214.33;103329;1284;24267;-58
2022/11/17 01:52:54;;;;;;;13.20;5.20;;;;;;;3.99;100.00;99209.23;103294;1302;24427;-57
2022/11/17 01:55:28;;;;;;;14.30;6.30;;;;;;;3.98;100.00;99208.02;103251;1278;25458;-59
2022/11/17 01:58:03;;;;;;;13.60;5.00;;;;;;;3.96;100.00;99209.03;103300;1278;24333;-58
2022/11/17 02:00:34;;;;;;;15.10;6.30;;;;;;;3.96;100.00;99208.94;103257;1302;22468;-57
2022/11/17 02:03:07;;;;;;;14.70;5.70;;;;;;;3.98;100.00;99207.21;103202;1278;22474;-57
2022/11/17 02:05:45;;;;;;;15.60;6.00;;;;;;;3.98;100.00;99207.12;103352;1271;24329;-56
2022/11/17 02:08:19;;;;;;;14.90;5.70;;;;;;;3.97;100.00;99205.38;103382;1271;22513;-58
2022/11/17 02:10:51;;;;;;;15.20;5.40;;;;;;;3.94;100.00;99202.01;103378;1288;22469;-54
2022/11/17 02:13:27;;;;;;;13.00;5.30;;;;;;;3.95;100.00;99205.06;103273;1279;24233;-57
2022/11/17 02:15:59;;;;;;;11.60;4.90;;;;;;;3.95;100.00;99205.38;103259;1303;24424;-57
2022/11/17 02:18:30;;;;;;;14.10;5.70;;;;;;;3.96;100.00;99209.02;103194;1280;22467;-57
2022/11/17 02:21:34;;;;;;;14.20;5.20;;;;;;;3.98;100.00;99206.27;103447;1274;27676;-57
2022/11/17 02:24:49;;;;;;;13.60;5.20;;;;;;;3.96;100.00;99205.31;102922;1276;22471;-55
2022/11/17 02:27:53;;;;;;;16.50;6.60;;;;;;;3.95;100.00;99198.45;102582;1289;24579;-55
2022/11/17 02:30:30;;;;;;;15.60;5.90;;;;;;;3.97;100.00;99202.36;102356;1289;25222;-57
2022/11/17 02:33:07;;;;;;;16.70;6.50;;;;;;;3.97;100.00;99197.60;102594;1312;22511;-57
2022/11/17 02:35:52;;;;;;;14.00;6.00;;;;;;;3.97;100.00;99197.45;102439;1290;24265;-58
2022/11/17 02:38:32;;;;;;;16.30;6.60;;;;;;;3.99;100.00;99195.48;102564;1303;22474;-57
2022/11/17 02:41:09;;;;;;;15.00;6.10;;;;;;;4.02;100.00;99192.46;102227;1312;338227;-57
2022/11/17 02:46:47;;;;;;;17.60;6.80;;;;;;;4.04;100.00;99190.14;102370;1314;22492;-56
2022/11/17 02:49:22;;;;;;;17.50;6.90;;;;;;;4.04;100.00;99189.17;102429;1286;22475;-58
2022/11/17 02:51:59;;;;;;;19.20;6.70;;;;;;;4.03;100.00;99183.21;102506;1290;24429;-57
2022/11/17 02:54:32;;;;;;;20.00;7.70;;;;;;;4.04;100.00;99185.73;102368;1282;24347;-56
2022/11/17 02:57:04;;;;;;;16.60;7.50;;;;;;;4.04;100.00;99185.02;102668;1288;24420;-55
2022/11/17 02:59:42;;;;;;;18.80;7.70;;;;;;;4.02;100.00;99182.17;102408;1289;24254;-58
2022/11/17 03:02:43;;;;;;;20.50;8.80;;;;;;;4.02;100.00;99180.85;102861;1305;22489;-58
2022/11/17 03:05:20;;;;;;;19.20;7.70;;;;;;;4.02;100.00;99179.52;102904;1285;25234;-58
2022/11/17 03:08:06;;;;;;;21.10;8.30;;;;;;;4.01;100.00;99182.00;102862;1307;24274;-57
2022/11/17 03:10:48;;;;;;;17.80;7.90;;;;;;;3.99;100.00;99182.45;102811;1307;24347;-58
2022/11/17 03:13:30;;;;;;;23.60;8.70;;;;;;;3.99;100.00;99180.18;102768;1282;24324;-59
2022/11/17 03:16:16;;;;;;;23.30;10.20;;;;;;;3.97;100.00;99184.99;102769;1301;25197;-55
2022/11/17 03:19:01;;;;;;;18.90;8.40;;;;;;;3.97;100.00;99182.89;102797;1285;23203;-56
2022/11/17 03:21:36;;;;;;;24.10;10.90;;;;;;;3.95;100.00;99184.05;102704;1277;22939;-55
2022/11/17 03:24:14;;;;;;;25.20;10.30;;;;;;;3.95;100.00;99187.36;102796;1283;23178;-58
2022/11/17 03:26:49;;;;;;;22.10;9.50;;;;;;;3.96;100.00;99186.84;103011;1284;24305;-56
2022/11/17 03:29:25;;;;;;;21.60;8.60;;;;;;;3.98;100.00;99188.59;102882;1284;22731;-57
2022/11/17 03:32:02;;;;;;;19.70;8.30;;;;;;;3.99;100.00;99187.11;102957;1307;22483;-57
2022/11/17 03:34:39;;;;;;;22.90;9.50;;;;;;;3.99;100.00;99190.67;103055;1285;22497;-58
2022/11/17 03:37:13;;;;;;;23.30;9.80;;;;;;;3.98;100.00;99189.85;102960;1274;22481;-58
2022/11/17 03:39:49;;;;;;;23.80;9.50;;;;;;;3.98;100.00;99191.65;102862;1307;23671;-58
2022/11/17 03:42:24;;;;;;;23.40;10.80;;;;;;;3.99;100.00;99187.66;102974;1278;25293;-59
2022/11/17 03:44:59;;;;;;;23.80;11.10;;;;;;;3.98;100.00;99187.89;103228;1275;24887;-57
2022/11/17 03:47:34;;;;;;;23.30;9.70;;;;;;;3.98;100.00;99189.20;103284;1278;25294;-57
2022/11/17 03:50:09;;;;;;;22.90;9.80;;;;;;;4.00;100.00;99191.67;103306;1295;24301;-58
2022/11/17 03:52:41;;;;;;;21.60;10.30;;;;;;;4.01;100.00;99193.85;103301;1296;22474;-57
2022/11/17 03:55:13;;;;;;;21.70;9.70;;;;;;;4.02;100.00;99196.48;103464;1278;25260;-57
2022/11/17 03:57:53;;;;;;;24.60;8.20;;;;;;;4.02;100.00;99198.20;103309;1271;22460;-56
2022/11/17 04:00:25;;;;;;;22.60;8.90;;;;;;;4.00;100.00;99196.48;103220;1302;24318;-57
2022/11/17 04:02:58;;;;;;;22.00;9.20;;;;;;;4.00;100.00;99200.25;103232;1278;23406;-55
2022/11/17 04:05:29;;;;;;;20.00;8.20;;;;;;;4.01;100.00;99203.05;103189;1284;22468;-56
2022/11/17 04:08:01;;;;;;;23.40;9.50;;;;;;;4.02;100.00;99200.71;103259;1277;26443;-55
2022/11/17 04:15:54;;;;;;;21.10;9.50;;;;;;;4.02;100.00;99198.51;103325;1269;24439;-58
2022/11/17 04:16:13;;;;;;;23.70;8.90;;;;;;;4.04;100.00;99211.52;103202;1278;24430;-56
2022/11/17 04:18:44;;;;;;;22.30;9.50;;;;;;;4.04;100.00;99212.86;103386;1299;24010;-56
2022/11/17 04:21:15;;;;;;;19.70;8.80;;;;;;;4.03;100.00;99212.48;103425;1278;24532;-58
2022/11/17 04:23:46;;;;;;;20.50;8.80;;;;;;;4.03;100.00;99211.17;103396;1271;24342;-59
2022/11/17 04:29:07;;;;;;;22.70;9.10;;;;;;;4.03;100.00;99203.80;103287;1294;22596;-58
2022/11/17 04:31:39;;;;;;;20.00;8.70;;;;;;;4.04;100.00;99200.16;103304;1303;22797;-55
2022/11/17 04:34:10;;;;;;;20.50;8.50;;;;;;;4.02;100.00;99200.16;103350;1278;26458;-58
2022/11/17 04:36:45;;;;;;;23.00;10.00;;;;;;;4.01;100.00;99202.69;103718;1301;25362;-58
2022/11/17 04:39:17;;;;;;;23.50;10.70;;;;;;;4.01;100.00;99203.23;103358;1278;22472;-57
2022/11/17 04:41:56;;;;;;;21.10;9.50;;;;;;;4.02;100.00;99204.21;103216;1277;25838;-57
2022/11/17 04:44:28;;;;;;;21.60;9.40;;;;;;;4.02;100.00;99201.76;103485;1275;22533;-56
2022/11/17 04:47:02;;;;;;;23.80;9.90;;;;;;;4.03;100.00;99203.34;103290;1302;22529;-57
2022/11/17 04:49:34;;;;;;;21.50;8.70;;;;;;;4.04;100.00;99202.06;103436;1302;22461;-55
2022/11/17 04:52:06;;;;;;;21.10;7.90;;;;;;;4.04;100.00;99200.33;103477;1279;22485;-58
2022/11/17 04:54:38;;;;;;;20.10;9.20;;;;;;;4.06;100.00;99202.63;103415;1285;25238;-57
2022/11/17 04:57:10;;;;;;;26.30;10.80;;;;;;;4.07;100.00;99193.02;103221;1297;22484;-56
2022/11/17 04:59:42;;;;;;;22.00;9.70;;;;;;;4.07;100.00;99194.83;103221;1277;25644;-56
2022/11/17 05:02:13;;;;;;;20.40;9.10;;;;;;;4.09;100.00;99197.67;103368;1296;22476;-56
2022/11/17 05:04:57;;;;;;;22.70;8.70;;;;;;;4.08;100.00;99200.08;103300;1275;22476;-57
2022/11/17 05:07:28;;;;;;;22.30;8.90;;;;;;;4.07;100.00;99203.02;103695;1278;22454;-62
2022/11/17 05:10:00;;;;;;;22.70;9.20;;;;;;;4.07;100.00;99207.71;103287;1271;22481;-63
2022/11/17 05:18:20;;;;;;;21.10;8.60;;;;;;;4.04;100.00;99202.01;102808;1292;22471;-64
2022/11/17 05:20:52;;;;;;;22.80;9.90;;;;;;;4.04;100.00;99202.61;102970;1282;22480;-62
2022/11/17 05:26:13;;;;;;;21.10;9.10;;;;;;;4.00;100.00;99205.38;102759;1284;23089;-58
2022/11/17 05:28:44;;;;;;;22.70;9.10;;;;;;;4.00;100.00;99205.25;103004;1306;22474;-55
2022/11/17 05:31:16;;;;;;;23.10;9.20;;;;;;;4.03;100.00;99202.84;102937;1283;23967;-54
2022/11/17 05:33:48;;;;;;;20.80;8.70;;;;;;;4.03;100.00;99206.27;102932;1274;25250;-58
2022/11/17 05:36:20;;;;;;;21.10;9.00;;;;;;;4.03;100.00;99211.23;103051;1278;25164;-58
2022/11/17 05:38:52;;;;;;;23.80;10.10;;;;;;;4.03;100.00;99208.51;102860;1284;22468;-58
2022/11/17 05:41:26;;;;;;;21.60;9.10;;;;;;;4.04;100.00;99212.78;104886;1284;24301;-57
2022/11/17 05:43:58;;;;;;;22.40;8.80;;;;;;;4.05;100.00;99217.02;102974;1306;22703;-58
2022/11/17 05:46:30;;;;;;;21.80;8.60;;;;;;;4.07;100.00;99221.25;103139;1275;22478;-58
2022/11/17 05:49:01;;;;;;;21.10;9.10;;;;;;;4.08;100.00;99217.13;103351;1277;24332;-58
2022/11/17 05:51:33;;;;;;;20.70;8.10;;;;;;;4.09;100.00;99219.62;103392;1274;24308;-58
2022/11/17 05:54:04;;;;;;;21.30;8.70;;;;;;;4.09;100.00;99221.49;103329;1279;25342;-55
2022/11/17 05:56:39;;;;;;;20.40;8.70;;;;;;;4.08;100.00;99222.16;103506;1278;22468;-55
2022/11/17 05:59:20;;;;;;;21.50;9.30;;;;;;;4.09;100.00;99223.30;103538;1280;23225;-57
2022/11/17 06:01:57;;;;;;;22.60;9.10;;;;;;;4.08;100.00;99220.91;103178;1295;24420;-59
2022/11/17 06:04:30;;;;;;;21.50;8.50;;;;;;;4.07;100.00;99220.40;103654;1279;25362;-56
2022/11/17 06:07:02;;;;;;;23.30;8.40;;;;;;;4.08;100.00;99214.38;103437;1282;22579;-56
2022/11/17 06:09:36;;;;;;;21.30;8.30;;;;;;;4.07;100.00;99215.76;103484;1280;22476;-59
2022/11/17 06:12:10;;;;;;;21.70;9.60;;;;;;;4.05;100.00;99216.70;103406;1299;22742;-58
2022/11/17 06:14:43;;;;;;;27.10;12.30;;;;;;;4.04;100.00;99219.65;103365;1280;22651;-58
2022/11/17 06:17:21;;;;;;;22.10;9.00;;;;;;;4.04;100.00;99221.00;103313;1275;23634;-58
2022/11/17 06:19:55;;;;;;;20.40;8.20;;;;;;;4.04;100.00;99222.41;103349;1278;22476;-58
2022/11/17 06:22:29;;;;;;;17.50;7.10;;;;;;;4.05;100.00;99225.91;104999;1278;22464;-56
2022/11/17 06:25:03;;;;;;;18.60;7.20;;;;;;;4.07;100.00;99224.45;103785;1290;22604;-58
2022/11/17 06:27:35;;;;;;;20.40;8.00;;;;;;;4.07;100.00;99221.65;103382;1289;22582;-58
2022/11/17 06:30:08;;;;;;;19.40;7.40;;;;;;;4.07;100.00;99220.80;103396;1278;22475;-58
2022/11/17 06:32:42;;;;;;;20.00;8.40;;;;;;;4.05;99.94;99220.80;103415;1279;26644;-59
2022/11/17 06:35:15;;;;;;;19.80;7.40;;;;;;;4.04;99.98;99222.88;103374;1277;23079;-58
2022/11/17 06:37:46;;;;;;;17.90;7.70;;;;;;;4.04;99.93;99220.60;103359;1278;22477;-60
2022/11/17 06:40:19;;;;;;;17.00;6.60;;;;;;;4.03;99.92;99214.54;103313;1278;24215;-58
2022/11/17 06:43:09;;;;;;;18.40;6.50;;;;;;;4.04;99.91;99212.95;103272;1279;22604;-58
2022/11/17 06:45:43;;;;;;;18.40;7.00;;;;;;;4.03;99.92;99215.03;103318;1277;24742;-58
2022/11/17 06:48:24;;;;;;;17.80;6.00;;;;;;;4.03;99.84;99220.66;103313;1275;22482;-57
2022/11/17 06:50:57;;;;;;;18.00;7.20;;;;;;;4.03;99.84;99224.03;103288;1277;22480;-57
2022/11/17 06:53:28;;;;;;;23.00;8.60;;;;;;;4.02;99.66;99225.50;103473;1294;22478;-58
2022/11/17 06:56:02;;;;;;;28.30;11.10;;;;;;;4.02;99.88;99225.73;103416;1301;24256;-58
2022/11/17 06:58:34;;;;;;;22.40;9.90;;;;;;;4.02;99.82;99224.16;103293;1302;25104;-56
2022/11/17 07:01:09;;;;;;;25.50;11.10;;;;;;;4.01;99.68;99226.27;103465;1275;22466;-57
2022/11/17 07:03:41;;;;;;;25.20;8.60;;;;;;;4.02;99.75;99227.80;103297;1302;24328;-57
2022/11/17 07:06:14;;;;;;;25.40;8.40;;;;;;;4.02;99.78;99229.92;103467;1303;22508;-59
2022/11/17 07:08:46;;;;;;;51.90;29.50;;;;;;;4.02;99.69;99232.36;103468;1277;22463;-56
2022/11/17 07:11:18;;;;;;;51.20;26.90;;;;;;;4.04;99.73;99236.55;103398;1302;25586;-57
2022/11/17 07:13:49;;;;;;;40.00;21.00;;;;;;;4.04;99.70;99239.16;103325;1274;22495;-57
2022/11/17 07:16:22;;;;;;;28.40;11.60;;;;;;;4.02;99.39;99236.77;103438;1271;24891;-57
2022/11/17 07:18:53;;;;;;;23.50;9.00;;;;;;;4.01;99.31;99236.98;103340;1302;22476;-56
2022/11/17 07:21:25;;;;;;;23.00;8.70;;;;;;;4.01;99.49;99233.36;103325;1271;24234;-58
2022/11/17 07:23:56;;;;;;;20.00;6.50;;;;;;;4.00;99.43;99232.13;103419;1279;22582;-57
2022/11/17 07:26:28;;;;;;;17.00;6.30;;;;;;;4.00;99.35;99231.20;103219;1279;23189;-58
2022/11/17 07:29:00;;;;;;;16.10;5.80;;;;;;;4.01;99.53;99236.21;103356;1271;25143;-57
2022/11/17 07:31:37;;;;;;;16.70;6.10;;;;;;;4.02;99.55;99236.46;103333;1303;24460;-57
2022/11/17 07:34:15;;;;;;;13.60;4.90;;;;;;;4.03;99.42;99237.84;103232;1281;24346;-56
2022/11/17 07:36:46;;;;;;;16.30;5.80;;;;;;;4.02;99.31;99235.45;103431;1303;22481;-58
2022/11/17 07:39:18;;;;;;;15.70;5.00;;;;;;;4.02;99.42;99230.64;103342;1302;24308;-57
2022/11/17 07:41:49;;;;;;;12.90;5.00;;;;;;;4.04;99.45;99229.53;103329;1278;25336;-57
2022/11/17 07:44:20;;;;;;;13.70;5.30;;;;;;;4.06;99.54;99227.08;103421;1303;23013;-60
2022/11/17 07:46:53;;;;;;;16.40;5.90;;;;;;;4.07;99.42;99224.98;103678;1273;22472;-57
2022/11/17 07:49:26;;;;;;;17.10;6.30;;;;;;;4.08;99.42;99228.89;103272;1279;22466;-58
2022/11/17 07:51:57;;;;;;;15.90;4.70;;;;;;;4.08;99.31;99232.81;103430;1288;25315;-59
2022/11/17 07:54:30;;;;;;;16.00;5.80;;;;;;;4.10;99.33;99232.66;103655;1279;26298;-57
2022/11/17 07:57:01;;;;;;;16.50;5.50;;;;;;;4.11;99.32;99234.61;103499;1278;22482;-59
2022/11/17 07:59:32;;;;;;;16.10;5.60;;;;;;;4.12;99.24;99234.33;103730;1286;24293;-56
2022/11/17 08:02:04;;;;;;;17.70;6.00;;;;;;;4.14;99.13;99231.35;103449;1279;22483;-58
2022/11/17 08:04:36;;;;;;;13.60;4.40;;;;;;;4.14;99.11;99230.30;103384;1285;26066;-59
2022/11/17 08:07:08;;;;;;;15.00;5.40;;;;;;;4.13;99.07;99233.65;103407;1279;24193;-58
2022/11/17 08:09:40;;;;;;;14.10;5.50;;;;;;;4.13;99.00;99233.50;103547;1285;22654;-59
2022/11/17 08:12:13;;;;;;;14.40;5.20;;;;;;;4.14;98.92;99230.46;103272;1279;24279;-57
2022/11/17 08:14:44;;;;;;;14.60;4.80;;;;;;;4.12;98.69;99233.71;103294;1288;25229;-59
2022/11/17 08:17:17;;;;;;;17.70;5.70;;;;;;;4.11;98.67;99230.98;103444;1278;24352;-59
2022/11/17 08:19:49;;;;;;;14.10;4.90;;;;;;;4.10;98.65;99227.54;103353;1293;22619;-58
2022/11/17 08:22:20;;;;;;;16.40;6.10;;;;;;;4.08;98.54;99232.02;103510;1278;24232;-59
2022/11/17 08:24:52;;;;;;;19.70;5.10;;;;;;;4.06;98.51;99233.55;103432;1279;25524;-59
2022/11/17 08:27:24;;;;;;;18.10;6.30;;;;;;;4.04;98.24;99229.93;103234;1301;22511;-58
2022/11/17 08:29:56;;;;;;;13.40;4.20;;;;;;;4.03;98.40;99229.95;103322;1272;22511;-59
2022/11/17 08:32:28;;;;;;;15.10;5.50;;;;;;;4.00;98.17;99229.21;103515;1271;22603;-59
2022/11/17 08:35:02;;;;;;;12.40;3.90;;;;;;;3.99;98.11;99233.20;103357;1278;24329;-59
2022/11/17 08:37:34;;;;;;;11.50;3.90;;;;;;;3.95;97.99;99231.54;103250;1302;22471;-58
2022/11/17 08:40:07;;;;;;;12.20;3.80;;;;;;;3.93;98.07;99234.24;103355;1301;22472;-58
2022/11/17 08:42:38;;;;;;;12.50;3.30;;;;;;;3.94;98.27;99235.80;103233;1302;23306;-58
2022/11/17 08:45:11;;;;;;;13.90;4.10;;;;;;;3.95;98.38;99239.21;103272;1279;22745;-59
2022/11/17 08:47:44;;;;;;;13.50;4.10;;;;;;;3.95;98.18;99235.34;103456;1303;22474;-57
2022/11/17 08:50:19;;;;;;;12.00;3.60;;;;;;;3.94;98.16;99233.34;103428;1283;23070;-58
2022/11/17 08:52:51;;;;;;;12.90;3.60;;;;;;;3.95;97.86;99233.23;103347;1278;26610;-58
2022/11/17 08:55:24;;;;;;;10.20;3.60;;;;;;;3.95;98.03;99235.05;103458;1278;24162;-58
2022/11/17 08:57:56;;;;;;;11.80;3.40;;;;;;;3.97;98.21;99235.41;103501;1295;22467;-58
2022/11/17 09:00:28;;;;;;;12.60;3.50;;;;;;;4.00;98.17;99239.65;103382;1279;22493;-59
2022/11/17 09:03:00;;;;;;;10.90;4.00;;;;;;;4.01;98.10;99247.27;103266;1277;22448;-58
2022/11/17 09:05:34;;;;;;;13.50;3.50;;;;;;;4.02;98.00;99255.48;103195;1302;22478;-55
2022/11/17 09:08:06;;;;;;;10.30;2.80;;;;;;;4.04;97.96;99254.53;103389;1278;24237;-58
2022/11/17 09:10:40;;;;;;;11.50;2.80;;;;;;;4.06;97.93;99252.18;103213;1279;25192;-57
2022/11/17 09:13:12;;;;;;;12.00;3.50;;;;;;;4.06;97.66;99253.25;103348;1285;23119;-58
2022/11/17 09:15:43;;;;;;;12.10;3.50;;;;;;;4.08;97.75;99256.52;103230;1284;22467;-57
2022/11/17 09:18:15;;;;;;;10.20;3.20;;;;;;;4.09;97.71;99255.20;103359;1277;24254;-57
2022/11/17 09:20:47;;;;;;;11.60;3.40;;;;;;;4.11;97.83;99256.70;103372;1277;24232;-58
2022/11/17 09:23:19;;;;;;;10.70;2.60;;;;;;;4.13;97.64;99260.11;103376;1299;22480;-58
2022/11/17 09:25:52;;;;;;;11.10;3.60;;;;;;;4.15;97.61;99264.27;103522;1285;26634;-56
2022/11/17 09:28:26;;;;;;;13.50;2.90;;;;;;;4.15;97.45;99262.92;103273;1278;25242;-57
2022/11/17 09:30:59;;;;;;;22.90;7.80;;;;;;;4.15;97.51;99267.80;103408;1303;22469;-58
2022/11/17 09:33:30;;;;;;;22.80;8.30;;;;;;;4.17;97.59;99266.08;103651;1276;25218;-57
2022/11/17 09:36:03;;;;;;;15.10;5.80;;;;;;;4.18;97.47;99262.71;103435;1284;25198;-58
2022/11/17 09:38:36;;;;;;;13.90;5.40;;;;;;;4.18;97.49;99261.56;103441;1303;22494;-60
2022/11/17 09:41:26;;;;;;;15.80;5.60;;;;;;;4.18;97.46;99255.48;103514;1279;22738;-57
2022/11/17 09:44:04;;;;;;;13.70;5.50;;;;;;;4.20;97.79;99249.84;103528;1283;25309;-57
2022/11/17 09:46:52;;;;;;;12.60;4.70;;;;;;;4.21;97.19;99247.99;103359;1280;22536;-58
2022/11/17 09:49:40;;;;;;;15.50;6.20;;;;;;;4.19;96.84;99245.10;103507;1285;22482;-58
2022/11/17 09:52:18;;;;;;;14.30;4.40;;;;;;;4.19;97.09;99249.73;103319;1299;22543;-58
2022/11/17 09:54:55;;;;;;;17.10;5.50;;;;;;;4.17;96.73;99247.12;103474;1281;22470;-58
2022/11/17 09:57:34;;;;;;;14.40;4.40;;;;;;;4.18;97.15;99247.44;103308;1275;24232;-57
2022/11/17 10:00:12;;;;;;;14.80;4.20;;;;;;;4.19;97.14;99243.41;103365;1277;22478;-57
2022/11/17 10:02:45;;;;;;;13.90;4.60;;;;;;;4.21;97.01;99240.34;103429;1278;24353;-58
2022/11/17 10:05:19;;;;;;;11.40;4.10;;;;;;;4.21;96.98;99239.21;103299;1281;22506;-57
2022/11/17 10:07:56;;;;;;;10.80;2.90;;;;;;;4.21;96.95;99239.36;103431;1277;25500;-56
2022/11/17 10:10:37;;;;;;;15.60;4.30;;;;;;;4.21;96.79;99234.88;103451;1285;22483;-58
2022/11/17 10:13:18;;;;;;;12.70;4.30;;;;;;;4.23;97.06;99234.48;103270;1281;22483;-57
2022/11/17 10:15:54;;;;;;;14.60;4.60;;;;;;;4.26;97.03;99236.33;103390;1292;24959;-58
2022/11/17 10:18:27;;;;;;;14.80;4.70;;;;;;;4.24;96.49;99241.55;103316;1285;22473;-58
2022/11/17 10:20:58;;;;;;;14.00;4.40;;;;;;;4.22;96.32;99238.62;103317;1285;22674;-57
2022/11/17 10:23:35;;;;;;;12.70;3.60;;;;;;;4.22;96.52;99236.56;103233;1277;22468;-59
2022/11/17 10:26:11;;;;;;;11.10;3.10;;;;;;;4.23;96.61;99239.45;103350;1306;22467;-58
2022/11/17 10:28:44;;;;;;;11.60;2.90;;;;;;;4.23;96.37;99241.57;103394;1275;24279;-64
2022/11/17 10:31:18;;;;;;;10.20;3.30;;;;;;;4.22;96.06;99242.75;103356;1307;22462;-59
2022/11/17 10:33:51;;;;;;;11.80;3.40;;;;;;;4.23;96.42;99242.86;103402;1283;25454;-59
2022/11/17 10:36:30;;;;;;;10.70;3.20;;;;;;;4.26;96.58;99242.25;103258;1303;22607;-59
2022/11/17 10:39:02;;;;;;;12.40;3.70;;;;;;;4.27;96.29;99243.54;103383;1284;22905;-60
2022/11/17 10:41:40;;;;;;;11.00;2.80;;;;;;;4.26;95.97;99248.95;103316;1282;24374;-61
2022/11/17 10:44:24;;;;;;;22.80;9.10;;;;;;;4.25;95.96;99245.98;103425;1293;25410;-62
2022/11/17 10:47:02;;;;;;;21.90;7.00;;;;;;;4.25;96.24;99243.23;103435;1277;24491;-61
2022/11/17 10:49:37;;;;;;;23.60;9.30;;;;;;;4.27;96.22;99240.92;103274;1285;25320;-60
2022/11/17 10:52:18;;;;;;;16.80;5.00;;;;;;;4.28;96.14;99238.95;103233;1283;22486;-59
2022/11/17 10:54:50;;;;;;;9.70;2.70;;;;;;;4.28;95.97;99236.55;103411;1302;22606;-60
2022/11/17 10:57:25;;;;;;;8.10;2.30;;;;;;;4.30;95.78;99244.61;103229;1283;22537;-60
2022/11/17 10:59:58;;;;;;;8.40;2.60;;;;;;;4.32;95.99;99245.39;103384;1279;25354;-60
2022/11/17 11:02:34;;;;;;;9.00;2.20;;;;;;;4.34;95.72;99243.33;103706;1302;22851;-60
2022/11/17 11:05:12;;;;;;;7.80;2.20;;;;;;;4.34;95.36;99244.59;103296;1279;23256;-60
2022/11/17 11:08:21;;;;;;;10.40;2.30;;;;;;;4.33;95.07;99240.44;103397;1304;22482;-60
2022/11/17 11:11:24;;;;;;;8.80;1.90;;;;;;;4.31;94.78;99235.55;103250;1269;22477;-60
2022/11/17 11:14:00;;;;;;;10.10;2.60;;;;;;;4.30;94.94;99236.08;103297;1295;24295;-61
2022/11/17 11:16:33;;;;;;;8.30;2.40;;;;;;;4.31;95.11;99234.14;103289;1277;22499;-59
2022/11/17 11:19:13;;;;;;;7.90;2.40;;;;;;;4.30;94.78;99231.02;103482;1287;25237;-60
2022/11/17 11:22:03;;;;;;;18.00;6.10;;;;;;;4.30;94.92;99230.70;103448;1292;25316;-60
2022/11/17 11:24:42;;;;;;;16.40;4.30;;;;;;;4.30;94.81;99232.46;103392;1279;26819;-60
2022/11/17 11:27:42;;;;;;;11.70;3.10;;;;;;;4.28;94.63;99240.84;103269;1279;25315;-60
2022/11/17 11:30:16;;;;;;;22.40;8.20;;;;;;;4.27;94.65;99247.64;103272;1303;25267;-60
2022/11/17 11:32:59;;;;;;;23.60;10.10;;;;;;;4.27;94.80;99252.02;103408;1300;22472;-61
2022/11/17 11:35:41;;;;;;;28.40;15.70;;;;;;;4.27;94.53;99251.45;103337;1302;23838;-60
2022/11/17 11:38:28;;;;;;;29.80;11.60;;;;;;;4.25;94.32;99245.77;103483;1278;22493;-59
2022/11/17 11:41:14;;;;;;;21.70;8.20;;;;;;;4.24;94.16;99243.05;103194;1278;24311;-58
2022/11/17 11:43:58;;;;;;;15.00;5.10;;;;;;;4.23;93.91;99245.99;103286;1280;22594;-60
2022/11/17 11:46:42;;;;;;;10.10;3.00;;;;;;;4.22;93.88;99242.73;103339;1279;22557;-59
2022/11/17 11:49:29;;;;;;;8.70;2.50;;;;;;;4.20;94.00;99238.77;103254;1280;22468;-60
2022/11/17 11:52:26;;;;;;;12.00;3.50;;;;;;;4.21;94.13;99235.77;103366;1303;22462;-60
2022/11/17 11:55:05;;;;;;;10.90;4.10;;;;;;;4.22;94.28;99240.42;103293;1304;22903;-58
2022/11/17 11:57:42;;;;;;;14.20;6.10;;;;;;;4.23;94.06;99240.16;103234;1281;25364;-60
2022/11/17 12:00:19;;;;;;;13.10;5.10;;;;;;;4.23;93.70;99242.37;103360;1279;25192;-59
2022/11/17 12:02:55;;;;;;;14.10;4.60;;;;;;;4.24;94.10;99243.61;103335;1284;25213;-62
2022/11/17 12:05:36;;;;;;;19.10;6.90;;;;;;;4.24;93.90;99241.76;103410;1303;26458;-59
2022/11/17 12:08:14;;;;;;;13.80;3.50;;;;;;;4.24;93.21;99242.49;103400;1278;22936;-58
2022/11/17 12:10:54;;;;;;;33.00;12.70;;;;;;;4.22;93.20;99234.95;103357;1279;24233;-59
2022/11/17 12:13:27;;;;;;;31.30;10.30;;;;;;;4.21;93.14;99235.59;103436;1279;22484;-59
2022/11/17 12:18:58;;;;;;;64.90;28.70;;;;;;;4.23;93.23;99239.45;99830;1344;544787;-60
2022/11/17 12:21:30;;;;;;;82.10;35.10;;;;;;;4.23;93.45;99239.52;102492;1300;22515;-60
2022/11/17 12:24:22;;;;;;;34.00;12.40;;;;;;;4.25;93.24;99241.02;102343;1293;24059;-59
2022/11/17 12:27:14;;;;;;;29.90;12.40;;;;;;;4.25;92.99;99242.06;102271;1316;24334;-59
2022/11/17 12:29:49;;;;;;;34.20;12.40;;;;;;;4.23;92.90;99242.27;102431;1297;25367;-60